This is the latest recevied weather packets stored in our database for station/object I3RKE-10. If no packets are shown the sender has not sent any weather packets the latest 10 day(s).
| Time | Temp. | Humidity | Pressure | Rain* | Wind** | Luminosity | Snow |
|---|---|---|---|---|---|---|---|
| 1777593359 | 8.89° C | 56% | 1021.6 hPa | - | - | - | - |
| 1777592459 | 8.89° C | 55% | 1021.6 hPa | - | - | - | - |
| 1777591559 | 9.44° C | 53% | 1021.5 hPa | - | - | - | - |
| 1777590658 | 9.44° C | 54% | 1021.5 hPa | - | - | - | - |
| 1777589758 | 9.44° C | 55% | 1021.5 hPa | - | - | - | - |
| 1777588858 | 9.44° C | 54% | 1021.3 hPa | - | - | - | - |
| 1777587958 | 10° C | 53% | 1021.2 hPa | - | - | - | - |
| 1777587058 | 10° C | 53% | 1021.2 hPa | - | - | - | - |
| 1777586158 | 10° C | 53% | 1021 hPa | - | - | - | - |
| 1777585258 | 11.11° C | 49% | 1020.7 hPa | - | - | - | - |
| 1777584358 | 12.22° C | 44% | 1020.5 hPa | - | - | - | - |
| 1777583458 | 11.11° C | 48% | 1020.3 hPa | - | - | - | - |
| 1777582558 | 11.67° C | 49% | 1020.1 hPa | - | - | - | - |
| 1777581658 | 11.67° C | 50% | 1020.2 hPa | - | - | - | - |
| 1777580757 | 11.67° C | 49% | 1019.9 hPa | - | - | - | - |
| 1777579857 | 12.22° C | 49% | 1019.6 hPa | - | - | - | - |
| 1777578957 | 12.22° C | 48% | 1019.4 hPa | - | - | - | - |
| 1777578057 | 12.78° C | 45% | 1019.2 hPa | - | - | - | - |
| 1777577157 | 13.89° C | 40% | 1018.9 hPa | - | - | - | - |
| 1777576290 | 16.67° C | 27% | 1018.5 hPa | - | - | - | - |
| 1777576257 | 16.67° C | 27% | 1018.5 hPa | - | - | - | - |
| 1777575357 | 17.78° C | 26% | 1018.3 hPa | - | - | - | - |
| 1777574457 | 17.78° C | 26% | 1018.1 hPa | - | - | - | - |
| 1777573557 | 18.33° C | 25% | 1017.9 hPa | - | - | - | - |
| 1777572657 | 18.89° C | 24% | 1017.8 hPa | - | - | - | - |
* Rain since midnight (hover to see other rain measurements)
** Current wind speed in m/s (hover to see current wind gust speed)